Time;durP1;ratioP1;P1;durP2;ratioP2;P2;SDS_P1;SDS_P2;PMS_P1;PMS_P2;Temp;Humidity;BMP_temperature;BMP_pressure;BME280_temperature;BME280_humidity;BME280_pressure;Samples;Min_cycle;Max_cycle;Signal;HPM_P1;HPM_P2
2023/08/18 00:01:59;;;;;;;16.50;14.40;;;;;;;17.79;nan;101724.09;5022378;28;20385;-78
2023/08/18 00:04:25;;;;;;;17.08;15.00;;;;;;;17.73;nan;101722.50;5022424;28;20075;-78
2023/08/18 00:06:50;;;;;;;17.92;14.15;;;;;;;17.80;nan;101724.94;5016458;28;20025;-78
2023/08/18 00:09:15;;;;;;;16.88;14.30;;;;;;;17.67;nan;101703.44;5020968;28;20040;-78
2023/08/18 00:11:40;;;;;;;20.77;14.43;;;;;;;17.76;nan;101719.78;5018638;28;20489;-77
2023/08/18 00:14:06;;;;;;;15.15;13.30;;;;;;;17.74;nan;101721.56;5015053;28;20423;-78
2023/08/18 00:16:31;;;;;;;18.10;14.77;;;;;;;17.74;nan;101720.72;5023416;28;20660;-78
2023/08/18 00:18:57;;;;;;;15.52;13.90;;;;;;;17.70;nan;101714.72;5025547;28;20473;-77
2023/08/18 00:21:22;;;;;;;17.50;14.15;;;;;;;17.65;nan;101699.97;5022493;28;20042;-78
2023/08/18 00:23:47;;;;;;;15.18;13.23;;;;;;;17.70;nan;101708.59;5024681;28;20028;-77
2023/08/18 00:26:13;;;;;;;14.95;13.35;;;;;;;17.69;nan;101712.13;5018306;28;20037;-78
2023/08/18 00:28:38;;;;;;;16.00;14.18;;;;;;;17.66;nan;101701.72;5019740;28;20033;-78
2023/08/18 00:31:03;;;;;;;16.00;13.50;;;;;;;17.63;nan;101705.34;5024651;28;20033;-78
2023/08/18 00:33:28;;;;;;;17.42;12.88;;;;;;;17.63;nan;101699.19;5022798;28;20034;-78
2023/08/18 00:35:54;;;;;;;14.85;13.02;;;;;;;17.62;nan;101697.47;5023210;28;20076;-78
2023/08/18 00:38:19;;;;;;;17.17;12.90;;;;;;;17.58;nan;101696.72;5015537;28;20542;-78
2023/08/18 00:40:44;;;;;;;14.15;12.50;;;;;;;17.56;nan;101693.31;5023262;28;20072;-78
2023/08/18 00:43:10;;;;;;;13.45;11.90;;;;;;;17.52;nan;101702.22;5021967;28;20022;-77
2023/08/18 00:45:36;;;;;;;14.68;12.77;;;;;;;17.42;nan;101688.56;5022542;28;20034;-77
2023/08/18 00:48:01;;;;;;;14.65;12.43;;;;;;;17.45;nan;101698.97;5026949;28;20022;-78
2023/08/18 00:50:27;;;;;;;13.15;11.85;;;;;;;17.43;nan;101706.09;5024385;28;20037;-77
2023/08/18 00:52:57;;;;;;;13.77;12.10;;;;;;;17.39;nan;101701.84;5027057;28;20064;-79
2023/08/18 00:55:23;;;;;;;13.70;11.93;;;;;;;17.31;nan;101688.13;5012280;28;20499;-78
2023/08/18 00:57:49;;;;;;;16.75;13.00;;;;;;;17.39;nan;101699.22;5014700;28;20033;-78
2023/08/18 01:00:15;;;;;;;13.70;12.18;;;;;;;17.40;nan;101706.22;5011405;28;20087;-77
2023/08/18 01:02:41;;;;;;;16.20;12.48;;;;;;;17.39;nan;101703.63;5028411;28;20029;-78
2023/08/18 01:05:06;;;;;;;15.35;11.40;;;;;;;17.37;nan;101687.88;5023907;28;20515;-78
2023/08/18 01:07:32;;;;;;;12.82;11.52;;;;;;;17.39;nan;101703.63;5019355;28;20421;-78
2023/08/18 01:09:57;;;;;;;15.20;12.20;;;;;;;17.35;nan;101702.88;5020387;28;20104;-78
2023/08/18 01:12:52;;;;;;;13.30;11.90;;;;;;;17.34;nan;101701.19;5013060;28;20073;-78
2023/08/18 01:15:36;;;;;;;14.13;12.63;;;;;;;17.39;nan;101711.53;5020870;28;20026;-78
2023/08/18 01:18:04;;;;;;;14.82;12.32;;;;;;;17.36;nan;101707.22;5001057;28;20532;-78
2023/08/18 01:20:30;;;;;;;13.27;11.45;;;;;;;17.38;nan;101708.03;5023982;28;20029;-78
2023/08/18 01:22:56;;;;;;;12.40;10.85;;;;;;;17.38;nan;101697.50;5020567;28;20181;-78
2023/08/18 01:25:23;;;;;;;13.80;11.73;;;;;;;17.37;nan;101695.78;5020849;28;20040;-78
2023/08/18 01:27:48;;;;;;;14.98;11.88;;;;;;;17.33;nan;101681.03;5024298;28;20025;-78
2023/08/18 01:30:14;;;;;;;13.07;11.68;;;;;;;17.33;nan;101688.94;5015904;28;20044;-77
2023/08/18 01:32:58;;;;;;;12.60;11.30;;;;;;;17.34;nan;101676.59;5024977;28;20026;-78
2023/08/18 01:35:25;;;;;;;;;;;;;;;17.37;nan;101676.50;5024828;28;20057;-78
2023/08/18 01:37:53;;;;;;;13.00;11.40;;;;;;;17.23;nan;101662.06;5020857;28;19917;-78
2023/08/18 01:40:21;;;;;;;12.73;11.43;;;;;;;17.22;nan;101664.75;5024394;28;20477;-78
2023/08/18 01:42:47;;;;;;;13.45;11.57;;;;;;;17.14;nan;101656.28;5021862;28;20112;-77
2023/08/18 01:45:14;;;;;;;13.18;11.55;;;;;;;17.11;nan;101657.25;5019385;28;20029;-78
2023/08/18 01:47:40;;;;;;;12.65;11.18;;;;;;;17.05;nan;101662.75;5024711;28;20045;-78
2023/08/18 01:50:06;;;;;;;13.07;10.82;;;;;;;17.09;nan;101675.75;5022880;28;20393;-78
2023/08/18 01:52:32;;;;;;;12.98;11.25;;;;;;;17.12;nan;101676.56;5016621;28;20384;-78
2023/08/18 01:54:57;;;;;;;14.52;11.60;;;;;;;17.11;nan;101672.22;5016200;28;20513;-78
2023/08/18 01:57:22;;;;;;;12.38;10.93;;;;;;;17.06;nan;101660.03;5026037;28;20026;-78
2023/08/18 01:59:48;;;;;;;12.35;11.05;;;;;;;16.98;nan;101637.56;5021963;28;20066;-78
2023/08/18 02:02:13;;;;;;;13.35;11.77;;;;;;;17.08;nan;101652.09;5024031;28;20026;-78
2023/08/18 02:04:38;;;;;;;14.20;11.57;;;;;;;17.02;nan;101647.91;5024676;28;20385;-78
2023/08/18 02:07:04;;;;;;;13.13;11.70;;;;;;;17.01;nan;101648.84;5014990;28;20061;-78
2023/08/18 02:09:29;;;;;;;13.30;11.70;;;;;;;16.95;nan;101651.69;5012480;28;20033;-78
2023/08/18 02:11:55;;;;;;;15.93;11.73;;;;;;;16.98;nan;101659.50;5012668;28;20039;-78
2023/08/18 02:14:21;;;;;;;13.05;11.32;;;;;;;17.01;nan;101650.63;5011266;28;20030;-77
2023/08/18 02:16:48;;;;;;;15.07;11.35;;;;;;;16.99;nan;101653.28;5016277;28;20032;-77
2023/08/18 02:19:13;;;;;;;14.60;11.05;;;;;;;17.01;nan;101653.25;5012343;28;20062;-78
2023/08/18 02:21:38;;;;;;;14.15;11.75;;;;;;;17.01;nan;101653.25;5023283;28;20114;-77
2023/08/18 02:24:04;;;;;;;14.20;12.20;;;;;;;17.01;nan;101656.75;5022883;28;20056;-77
2023/08/18 02:26:30;;;;;;;13.27;11.88;;;;;;;16.97;nan;101647.25;5021479;28;20037;-78
2023/08/18 02:28:55;;;;;;;16.25;11.35;;;;;;;16.99;nan;101653.28;5022549;28;20469;-78
2023/08/18 02:31:20;;;;;;;15.25;12.63;;;;;;;17.01;nan;101655.88;5016179;28;20034;-78
2023/08/18 02:33:46;;;;;;;18.70;12.80;;;;;;;16.99;nan;101650.66;5021493;28;20026;-78
2023/08/18 02:36:12;;;;;;;14.73;13.20;;;;;;;16.98;nan;101653.38;5018570;28;20049;-77
2023/08/18 02:38:38;;;;;;;13.95;12.55;;;;;;;16.93;nan;101648.25;5019652;28;20053;-78
2023/08/18 02:41:03;;;;;;;15.27;13.32;;;;;;;16.91;nan;101644.84;5020665;28;20095;-78
2023/08/18 02:43:28;;;;;;;14.23;12.60;;;;;;;16.91;nan;101646.63;5019549;28;20430;-78
2023/08/18 02:45:58;;;;;;;16.00;13.10;;;;;;;16.83;nan;101633.72;5014052;28;20389;-78
2023/08/18 02:48:27;;;;;;;16.50;13.73;;;;;;;16.81;nan;101636.41;5015830;28;20881;-77
2023/08/18 02:51:02;;;;;;;14.77;12.68;;;;;;;16.87;nan;101648.47;5024456;28;20508;-78
2023/08/18 02:53:27;;;;;;;14.80;13.10;;;;;;;16.88;nan;101646.72;5020025;28;20072;-77
2023/08/18 02:55:54;;;;;;;14.68;12.80;;;;;;;16.85;nan;101639.78;5020726;28;20381;-77
2023/08/18 02:58:19;;;;;;;13.77;12.32;;;;;;;16.90;nan;101640.47;5016063;28;20540;-77
2023/08/18 03:00:44;;;;;;;14.70;13.07;;;;;;;16.90;nan;101640.47;5021130;28;20108;-77
2023/08/18 03:03:10;;;;;;;15.25;13.45;;;;;;;16.88;nan;101639.69;5020087;28;20030;-78
2023/08/18 03:05:37;;;;;;;17.52;13.45;;;;;;;16.85;nan;101650.31;5023049;28;20029;-78
2023/08/18 03:08:02;;;;;;;15.43;13.45;;;;;;;16.83;nan;101641.59;5024204;28;20086;-77
2023/08/18 03:10:28;;;;;;;15.32;13.73;;;;;;;16.79;nan;101635.59;5016197;28;20112;-77
2023/08/18 03:12:53;;;;;;;16.58;14.23;;;;;;;16.84;nan;101638.94;5022659;28;20033;-78
2023/08/18 03:15:18;;;;;;;14.55;12.90;;;;;;;16.83;nan;101631.06;5020723;28;20068;-77
2023/08/18 03:17:43;;;;;;;15.38;13.73;;;;;;;16.81;nan;101627.66;5016853;28;20538;-77
2023/08/18 03:20:09;;;;;;;16.33;14.05;;;;;;;16.79;nan;101635.59;5014481;28;20037;-77
2023/08/18 03:22:35;;;;;;;15.75;14.10;;;;;;;16.80;nan;101636.44;5014224;28;20025;-77
2023/08/18 03:25:01;;;;;;;16.58;14.45;;;;;;;16.79;nan;101645.28;5022874;28;20043;-77
2023/08/18 03:27:27;;;;;;;16.88;14.30;;;;;;;16.77;nan;101639.19;5014942;28;20524;-78
2023/08/18 03:29:52;;;;;;;17.55;14.77;;;;;;;16.75;nan;101639.28;5023880;28;20029;-77
2023/08/18 03:32:17;;;;;;;16.40;14.43;;;;;;;16.74;nan;101632.25;5019283;28;20029;-78
2023/08/18 03:34:42;;;;;;;18.95;15.35;;;;;;;16.75;nan;101633.16;5022211;28;20069;-77
2023/08/18 03:37:08;;;;;;;18.83;15.65;;;;;;;16.62;nan;101624.81;5017267;28;20119;-77
2023/08/18 03:39:33;;;;;;;17.08;14.90;;;;;;;16.62;nan;101638.81;5014919;28;20454;-77
2023/08/18 03:41:58;;;;;;;18.95;15.35;;;;;;;16.65;nan;101637.84;5004794;28;20022;-77
2023/08/18 03:44:24;;;;;;;18.52;15.65;;;;;;;16.63;nan;101637.91;5018738;28;20030;-77
2023/08/18 03:46:49;;;;;;;19.35;16.60;;;;;;;16.62;nan;101633.56;5017528;28;20037;-78
2023/08/18 03:49:14;;;;;;;19.63;16.02;;;;;;;16.60;nan;101632.72;5024126;28;20030;-78
2023/08/18 03:51:39;;;;;;;21.02;16.30;;;;;;;16.52;nan;101624.28;5020684;28;20030;-77
2023/08/18 03:54:05;;;;;;;19.20;16.45;;;;;;;16.52;nan;101616.38;5028547;28;20116;-78
2023/08/18 03:56:30;;;;;;;19.63;16.25;;;;;;;16.55;nan;101626.78;5022669;28;20125;-77
2023/08/18 03:58:55;;;;;;;18.17;15.20;;;;;;;16.56;nan;101635.56;5021277;28;20040;-78
2023/08/18 04:01:21;;;;;;;19.45;16.27;;;;;;;16.61;nan;101639.75;5026915;28;20047;-77
2023/08/18 04:03:48;;;;;;;20.33;16.17;;;;;;;16.57;nan;101635.47;5027106;28;20495;-77
2023/08/18 04:06:13;;;;;;;20.77;14.77;;;;;;;16.51;nan;101627.81;5022289;28;20033;-77
2023/08/18 04:08:40;;;;;;;19.52;15.73;;;;;;;16.58;nan;101633.72;5018845;28;20108;-78
2023/08/18 04:11:06;;;;;;;22.88;16.75;;;;;;;16.53;nan;101633.88;5015939;28;20110;-78
2023/08/18 04:13:31;;;;;;;19.58;15.55;;;;;;;16.50;nan;101628.72;5017512;28;20037;-77
2023/08/18 04:15:57;;;;;;;20.20;16.15;;;;;;;16.44;nan;101623.66;5020124;28;20022;-77
2023/08/18 04:18:23;;;;;;;18.52;14.90;;;;;;;16.49;nan;101641.94;5021872;28;20109;-77
2023/08/18 04:20:48;;;;;;;19.77;15.50;;;;;;;16.46;nan;101624.50;5014752;28;20186;-77
2023/08/18 04:23:13;;;;;;;22.92;15.70;;;;;;;16.47;nan;101622.72;5017040;28;20018;-78
2023/08/18 04:25:42;;;;;;;22.33;15.32;;;;;;;16.50;nan;101626.09;5026620;28;20477;-78
2023/08/18 04:28:08;;;;;;;22.13;16.20;;;;;;;16.52;nan;101615.53;5019944;28;20026;-78
2023/08/18 04:30:33;;;;;;;16.80;14.50;;;;;;;16.51;nan;101617.31;5026310;28;20239;-78
2023/08/18 04:32:58;;;;;;;17.23;14.90;;;;;;;16.52;nan;101621.63;5020745;28;20033;-78
2023/08/18 04:35:24;;;;;;;18.55;15.05;;;;;;;16.52;nan;101621.63;5018369;28;20043;-77
2023/08/18 04:37:49;;;;;;;21.20;15.02;;;;;;;16.52;nan;101615.53;5024562;28;20029;-78
2023/08/18 04:40:14;;;;;;;21.83;15.20;;;;;;;16.54;nan;101619.78;5021898;28;20496;-77
2023/08/18 04:42:40;;;;;;;19.35;14.68;;;;;;;16.53;nan;101622.50;5019474;28;20059;-78
2023/08/18 04:45:05;;;;;;;20.33;15.82;;;;;;;16.52;nan;101624.28;5029685;28;20484;-77
2023/08/18 04:47:31;;;;;;;20.70;15.52;;;;;;;16.53;nan;101628.63;5025257;28;20029;-77
2023/08/18 04:49:56;;;;;;;20.48;14.82;;;;;;;16.55;nan;101631.22;5024402;28;20109;-77
2023/08/18 04:52:23;;;;;;;21.35;14.95;;;;;;;16.59;nan;101632.81;5025164;28;20068;-78
2023/08/18 04:54:48;;;;;;;19.70;15.63;;;;;;;16.60;nan;101626.63;5021483;28;20041;-77
2023/08/18 04:57:13;;;;;;;18.73;15.30;;;;;;;16.54;nan;101617.16;5022459;28;20033;-78
2023/08/18 04:59:38;;;;;;;23.98;16.17;;;;;;;16.62;nan;101630.91;5023235;28;20412;-78
2023/08/18 05:02:04;;;;;;;22.08;16.13;;;;;;;16.61;nan;101636.22;5023568;28;20022;-77
2023/08/18 05:04:29;;;;;;;21.30;15.40;;;;;;;16.67;nan;101629.88;5024313;28;20549;-77
2023/08/18 05:06:55;;;;;;;26.58;17.50;;;;;;;16.65;nan;101626.47;5014509;28;20065;-78
2023/08/18 05:09:20;;;;;;;25.20;17.83;;;;;;;16.65;nan;101637.84;5027944;28;20029;-78
2023/08/18 05:11:45;;;;;;;30.00;17.85;;;;;;;16.62;nan;101633.56;5015971;28;20131;-78
2023/08/18 05:14:12;;;;;;;25.85;17.50;;;;;;;16.66;nan;101638.72;5022054;28;20542;-78
2023/08/18 05:16:37;;;;;;;26.55;18.45;;;;;;;16.63;nan;101621.25;5018183;28;20022;-78
2023/08/18 05:19:03;;;;;;;25.70;17.95;;;;;;;16.51;nan;101590.97;5017028;28;20075;-77
2023/08/18 05:21:28;;;;;;;30.35;18.27;;;;;;;16.62;nan;101607.22;5023287;28;20037;-78
2023/08/18 05:23:53;;;;;;;30.08;17.15;;;;;;;16.65;nan;101611.53;5023823;28;20113;-78
2023/08/18 05:26:19;;;;;;;28.92;19.35;;;;;;;16.75;nan;101607.66;5021984;28;20056;-77
2023/08/18 05:28:44;;;;;;;25.73;18.05;;;;;;;16.85;nan;101624.84;5021080;28;20471;-78
2023/08/18 05:31:10;;;;;;;25.60;17.48;;;;;;;16.81;nan;101609.22;5021134;28;20029;-78
2023/08/18 05:33:36;;;;;;;23.40;17.35;;;;;;;16.89;nan;101607.16;5022339;28;20026;-78
2023/08/18 05:36:04;;;;;;;24.23;16.77;;;;;;;16.89;nan;101599.25;5013671;28;20054;-78
2023/08/18 05:38:29;;;;;;;26.88;17.42;;;;;;;17.01;nan;101604.06;5017000;28;20044;-77
2023/08/18 05:41:04;;;;;;;21.90;17.25;;;;;;;17.07;nan;101606.47;5021770;28;20021;-78
2023/08/18 05:43:29;;;;;;;23.38;17.80;;;;;;;17.09;nan;101609.03;5019294;28;20589;-75
2023/08/18 05:45:54;;;;;;;21.67;16.80;;;;;;;17.13;nan;101613.25;5024693;28;20478;-76
2023/08/18 05:48:20;;;;;;;24.05;17.23;;;;;;;17.10;nan;101616.00;5010292;28;20059;-76
2023/08/18 05:50:46;;;;;;;20.67;16.25;;;;;;;17.08;nan;101615.22;5025362;28;20057;-75
2023/08/18 05:53:11;;;;;;;21.45;15.82;;;;;;;17.05;nan;101613.56;5023094;28;20026;-78
2023/08/18 05:55:36;;;;;;;20.75;15.75;;;;;;;17.05;nan;101625.88;5024802;28;20029;-77
2023/08/18 05:58:03;;;;;;;21.23;16.13;;;;;;;16.97;nan;101613.00;5021883;28;20466;-78
2023/08/18 06:00:29;;;;;;;23.67;16.13;;;;;;;17.01;nan;101614.59;5019422;28;20109;-78
2023/08/18 06:02:55;;;;;;;20.70;16.02;;;;;;;17.00;nan;101620.78;5016861;28;20097;-77
2023/08/18 06:05:21;;;;;;;23.33;16.60;;;;;;;16.94;nan;101625.41;5023486;28;20036;-78
2023/08/18 06:07:46;;;;;;;22.33;15.98;;;;;;;16.91;nan;101621.13;5024444;28;20484;-78
2023/08/18 06:10:12;;;;;;;22.65;16.65;;;;;;;16.81;nan;101611.84;5021840;28;20025;-77
2023/08/18 06:12:38;;;;;;;25.70;17.85;;;;;;;16.84;nan;101627.56;5019998;28;20021;-78
2023/08/18 06:15:08;;;;;;;25.80;18.90;;;;;;;16.81;nan;101630.28;5017819;28;20018;-78
2023/08/18 06:17:34;;;;;;;26.52;18.35;;;;;;;16.81;nan;101628.50;5018915;28;20056;-78
2023/08/18 06:20:00;;;;;;;27.77;19.00;;;;;;;16.80;nan;101626.78;5019027;28;20425;-78
2023/08/18 06:22:25;;;;;;;29.27;19.27;;;;;;;16.85;nan;101635.38;5019997;28;20022;-78
2023/08/18 06:24:50;;;;;;;30.02;19.40;;;;;;;16.79;nan;101619.81;5023820;28;20033;-78
2023/08/18 06:27:16;;;;;;;25.55;19.65;;;;;;;16.78;nan;101614.59;5019820;28;20033;-78
2023/08/18 06:29:41;;;;;;;29.05;20.13;;;;;;;16.85;nan;101618.72;5020704;28;20030;-76
2023/08/18 06:32:07;;;;;;;29.00;20.70;;;;;;;16.89;nan;101617.69;5018502;28;20041;-76
2023/08/18 06:34:32;;;;;;;29.75;20.02;;;;;;;16.95;nan;101617.47;5016875;28;20038;-76
2023/08/18 06:36:57;;;;;;;27.13;19.25;;;;;;;16.98;nan;101614.72;5018945;28;20021;-76
2023/08/18 06:39:23;;;;;;;29.80;21.15;;;;;;;16.95;nan;101614.81;5019398;28;20052;-76
2023/08/18 06:41:48;;;;;;;28.85;19.98;;;;;;;16.98;nan;101611.22;5020300;28;20434;-76
2023/08/18 06:44:13;;;;;;;26.05;19.65;;;;;;;16.97;nan;101605.09;5022779;28;20084;-76
2023/08/18 06:46:39;;;;;;;26.92;18.92;;;;;;;17.03;nan;101612.75;5018213;28;20022;-76
2023/08/18 06:49:04;;;;;;;26.73;19.50;;;;;;;17.12;nan;101622.09;5012490;28;20521;-77
2023/08/18 06:51:29;;;;;;;30.38;20.92;;;;;;;17.14;nan;101614.13;5014858;28;20636;-77
2023/08/18 06:53:55;;;;;;;29.20;19.95;;;;;;;17.16;nan;101615.75;5025224;28;20013;-77
2023/08/18 06:56:20;;;;;;;24.95;19.90;;;;;;;17.14;nan;101609.72;5019404;28;20057;-77
2023/08/18 06:58:45;;;;;;;26.10;19.70;;;;;;;17.12;nan;101589.59;5027916;28;20036;-77
2023/08/18 07:01:11;;;;;;;26.40;18.65;;;;;;;17.37;nan;101605.31;5019663;28;20112;-76
2023/08/18 07:03:36;;;;;;;26.70;19.67;;;;;;;17.38;nan;101585.94;5025345;28;20025;-77
2023/08/18 07:06:02;;;;;;;24.92;19.05;;;;;;;17.57;nan;101601.88;5010678;28;20034;-76
2023/08/18 07:08:28;;;;;;;26.00;18.35;;;;;;;17.59;nan;101606.16;5008388;28;20374;-76
2023/08/18 07:10:53;;;;;;;25.17;18.60;;;;;;;17.62;nan;101600.75;5024672;28;20030;-76
2023/08/18 07:13:21;;;;;;;25.08;18.60;;;;;;;17.68;nan;101594.38;5022271;28;20026;-76
2023/08/18 07:15:46;;;;;;;24.13;17.88;;;;;;;17.68;nan;101582.06;5009117;28;20025;-76
2023/08/18 07:18:11;;;;;;;26.75;18.30;;;;;;;17.79;nan;101592.22;5016946;28;20418;-76
2023/08/18 07:20:36;;;;;;;26.67;19.30;;;;;;;17.91;nan;101590.81;5010971;28;20034;-76
2023/08/18 07:23:03;;;;;;;23.20;17.75;;;;;;;17.98;nan;101584.34;5024600;28;20041;-76
2023/08/18 07:25:30;;;;;;;24.65;18.33;;;;;;;18.05;nan;101584.94;5020646;28;20041;-76
2023/08/18 07:27:55;;;;;;;25.90;18.25;;;;;;;18.17;nan;101592.34;5022751;28;20473;-76
2023/08/18 07:30:21;;;;;;;24.73;18.63;;;;;;;18.23;nan;101592.09;5021517;28;20057;-76
2023/08/18 07:32:47;;;;;;;24.88;18.58;;;;;;;18.25;nan;101596.38;5015377;28;20049;-76
2023/08/18 07:35:12;;;;;;;27.27;19.45;;;;;;;18.28;nan;101598.03;5016620;28;20497;-76
2023/08/18 07:37:37;;;;;;;25.75;19.50;;;;;;;18.31;nan;101600.53;5017312;28;20377;-76
2023/08/18 07:40:05;;;;;;;25.25;18.25;;;;;;;18.36;nan;101593.25;5005213;28;20053;-77
2023/08/18 07:42:31;;;;;;;24.20;18.60;;;;;;;18.41;nan;101591.28;5008250;28;20025;-77
2023/08/18 07:44:59;;;;;;;23.65;19.20;;;;;;;18.41;nan;101588.66;5022155;28;20037;-76
2023/08/18 07:47:24;;;;;;;24.33;18.40;;;;;;;18.47;nan;101592.78;5019387;28;20076;-76
2023/08/18 07:49:49;;;;;;;25.83;19.23;;;;;;;18.53;nan;101591.66;5020625;28;20417;-76
2023/08/18 07:52:15;;;;;;;23.08;17.48;;;;;;;18.54;nan;101601.28;5022689;28;20432;-77
2023/08/18 07:54:41;;;;;;;22.70;18.17;;;;;;;18.61;nan;101602.75;5016580;28;20041;-77
2023/08/18 07:57:06;;;;;;;23.48;17.48;;;;;;;18.59;nan;101597.50;5018195;28;20465;-76
2023/08/18 07:59:31;;;;;;;22.95;17.85;;;;;;;18.56;nan;101602.09;5025692;28;20380;-76
2023/08/18 08:01:57;;;;;;;24.55;17.73;;;;;;;18.67;nan;101618.28;5019238;28;20030;-77
2023/08/18 08:04:23;;;;;;;25.08;19.20;;;;;;;18.62;nan;101605.31;5019341;28;20034;-76
2023/08/18 08:06:49;;;;;;;26.10;18.25;;;;;;;18.75;nan;101602.16;5017488;28;20030;-77
2023/08/18 08:09:15;;;;;;;25.45;19.38;;;;;;;18.76;nan;101593.28;5025189;28;20137;-77
2023/08/18 08:11:40;;;;;;;25.85;20.10;;;;;;;18.88;nan;101598.00;5019778;28;20083;-76
2023/08/18 08:14:06;;;;;;;26.05;19.08;;;;;;;18.87;nan;101610.38;5017715;28;20025;-76
2023/08/18 08:16:35;;;;;;;24.85;19.08;;;;;;;18.79;nan;101609.84;5009608;28;20068;-77
2023/08/18 08:19:01;;;;;;;23.50;17.80;;;;;;;18.75;nan;101618.84;5011467;28;20022;-76
2023/08/18 08:21:26;;;;;;;22.90;17.85;;;;;;;18.58;nan;101587.03;5014328;28;20037;-78
2023/08/18 08:23:51;;;;;;;21.23;17.23;;;;;;;18.76;nan;101615.28;5019376;28;20496;-79
2023/08/18 08:26:17;;;;;;;24.00;18.52;;;;;;;18.75;nan;101610.94;5017236;28;20076;-79
2023/08/18 08:28:44;;;;;;;23.65;18.25;;;;;;;18.85;nan;101611.38;5013770;28;20065;-78
2023/08/18 08:31:09;;;;;;;24.27;18.08;;;;;;;18.78;nan;101600.22;5020386;28;20030;-76
2023/08/18 08:33:36;;;;;;;21.75;17.23;;;;;;;18.87;nan;101607.72;5016670;28;20033;-78
2023/08/18 08:36:01;;;;;;;23.52;17.63;;;;;;;18.92;nan;101621.56;5010541;28;20394;-77
2023/08/18 08:38:27;;;;;;;23.25;17.48;;;;;;;18.91;nan;101616.38;5017496;28;20033;-76
2023/08/18 08:40:54;;;;;;;22.85;17.38;;;;;;;19.00;nan;101631.81;5019199;28;20080;-76
2023/08/18 08:43:20;;;;;;;25.15;17.25;;;;;;;19.00;nan;101638.84;5027537;28;20588;-76
2023/08/18 08:45:45;;;;;;;22.67;17.77;;;;;;;18.93;nan;101636.50;5024310;28;20116;-75
2023/08/18 08:48:11;;;;;;;24.55;18.05;;;;;;;18.90;nan;101638.41;5019182;28;20026;-76
2023/08/18 08:50:43;;;;;;;23.25;16.58;;;;;;;18.87;nan;101638.59;5021669;28;20141;-76
2023/08/18 08:53:12;;;;;;;22.80;16.90;;;;;;;18.89;nan;101637.56;5018001;28;20417;-76
2023/08/18 08:55:38;;;;;;;22.63;17.63;;;;;;;19.01;nan;101637.94;5014587;28;20037;-76
2023/08/18 08:58:04;;;;;;;21.90;17.60;;;;;;;19.06;nan;101628.84;5015206;28;20038;-76
2023/08/18 09:00:30;;;;;;;23.17;18.08;;;;;;;19.09;nan;101630.50;5016066;28;20092;-75
2023/08/18 09:03:00;;;;;;;22.85;18.17;;;;;;;19.13;nan;101637.38;5015296;28;20121;-76
2023/08/18 09:05:28;;;;;;;24.95;18.40;;;;;;;19.18;nan;101643.28;5020079;28;20029;-77
2023/08/18 09:07:53;;;;;;;24.15;17.75;;;;;;;19.21;nan;101632.56;5018455;28;20026;-77
2023/08/18 09:10:19;;;;;;;24.98;18.85;;;;;;;19.27;nan;101632.28;5010823;28;20037;-76
2023/08/18 09:12:46;;;;;;;24.70;18.33;;;;;;;19.30;nan;101629.50;5016338;28;20014;-76
2023/08/18 09:15:12;;;;;;;26.73;18.50;;;;;;;19.36;nan;101625.72;5015066;28;20037;-77
2023/08/18 09:17:38;;;;;;;27.40;18.65;;;;;;;19.44;nan;101635.91;5013337;28;20478;-78
2023/08/18 09:20:03;;;;;;;23.45;18.90;;;;;;;19.56;nan;101641.47;5016471;28;20049;-78
2023/08/18 09:22:29;;;;;;;24.77;18.73;;;;;;;19.53;nan;101632.84;5018507;28;20404;-76
2023/08/18 09:24:56;;;;;;;25.13;19.25;;;;;;;19.56;nan;101627.41;5025250;28;20013;-77
2023/08/18 09:27:22;;;;;;;25.83;20.33;;;;;;;19.69;nan;101630.34;5022688;28;20022;-77
2023/08/18 09:29:48;;;;;;;26.48;18.73;;;;;;;19.82;nan;101611.13;5024645;28;20030;-76
2023/08/18 09:32:13;;;;;;;22.25;18.00;;;;;;;19.86;nan;101611.81;5023191;28;20377;-76
2023/08/18 09:34:41;;;;;;;25.73;19.45;;;;;;;19.99;nan;101617.38;5019472;28;20119;-77
2023/08/18 09:37:06;;;;;;;25.38;19.25;;;;;;;20.05;nan;101615.25;5019549;28;20033;-77
2023/08/18 09:39:32;;;;;;;26.58;20.02;;;;;;;20.18;nan;101627.88;5023155;28;20034;-77
2023/08/18 09:41:58;;;;;;;28.02;20.45;;;;;;;20.29;nan;101623.72;5020382;28;20018;-77
2023/08/18 09:44:24;;;;;;;25.80;20.27;;;;;;;20.34;nan;101618.22;5020408;28;20034;-77
2023/08/18 09:46:54;;;;;;;25.27;19.73;;;;;;;20.37;nan;101619.81;5023792;28;20033;-76
2023/08/18 09:49:21;;;;;;;27.15;19.08;;;;;;;20.38;nan;101629.50;5024634;28;20385;-76
2023/08/18 09:51:57;;;;;;;24.27;19.35;;;;;;;20.38;nan;101625.03;5021531;28;20417;-76
2023/08/18 09:54:27;;;;;;;24.83;19.15;;;;;;;20.43;nan;101627.44;5026205;28;20026;-76
2023/08/18 09:56:59;;;;;;;26.05;20.00;;;;;;;20.58;nan;101619.59;5017592;28;20477;-77
2023/08/18 09:59:35;;;;;;;25.55;19.15;;;;;;;20.74;nan;101606.38;5020727;28;20037;-77
2023/08/18 10:02:03;;;;;;;24.05;19.10;;;;;;;20.88;nan;101612.72;5015426;28;20030;-74
2023/08/18 10:04:37;;;;;;;26.98;19.25;;;;;;;20.92;nan;101607.16;5025757;28;20058;-76
2023/08/18 10:07:04;;;;;;;24.83;19.23;;;;;;;21.02;nan;101611.00;5022338;28;20068;-76
2023/08/18 10:09:33;;;;;;;23.98;19.60;;;;;;;21.20;nan;101616.25;5027236;28;20428;-76
2023/08/18 10:12:00;;;;;;;27.73;20.48;;;;;;;21.20;nan;101610.94;5022912;28;20029;-75
2023/08/18 10:14:26;;;;;;;25.15;20.98;;;;;;;21.17;nan;101604.00;5011649;28;20113;-76
2023/08/18 10:16:53;;;;;;;26.65;21.75;;;;;;;21.18;nan;101600.41;5010967;28;20034;-75
2023/08/18 10:19:47;;;;;;;28.75;22.70;;;;;;;21.33;nan;101608.47;5010344;28;20120;-76
2023/08/18 10:22:14;;;;;;;31.50;23.48;;;;;;;21.29;nan;101610.44;5016919;28;20416;-76
2023/08/18 10:24:40;;;;;;;30.27;22.42;;;;;;;21.44;nan;101606.06;5024443;28;20026;-76
2023/08/18 10:27:10;;;;;;;27.80;22.55;;;;;;;21.60;nan;101591.00;5022377;28;20082;-79
2023/08/18 10:29:36;;;;;;;26.35;21.17;;;;;;;21.82;nan;101573.81;5023538;28;20034;-80
2023/08/18 10:32:08;;;;;;;28.52;23.00;;;;;;;21.93;nan;101582.84;5024435;28;20358;-76
2023/08/18 10:34:36;;;;;;;29.90;22.77;;;;;;;22.19;nan;101577.81;5020882;28;20041;-76
2023/08/18 10:37:03;;;;;;;26.80;22.25;;;;;;;22.37;nan;101586.47;5018286;28;20751;-76
2023/08/18 10:39:36;;;;;;;25.45;21.15;;;;;;;22.53;nan;101587.22;5019669;28;20014;-76
2023/08/18 10:42:10;;;;;;;27.25;22.17;;;;;;;22.74;nan;101563.78;5023750;28;20053;-74
2023/08/18 10:44:36;;;;;;;26.13;21.40;;;;;;;22.91;nan;101568.84;5018315;28;20093;-74
2023/08/18 10:47:03;;;;;;;26.00;20.58;;;;;;;23.01;nan;101569.16;5017879;28;20129;-75
2023/08/18 10:49:29;;;;;;;27.38;23.23;;;;;;;23.04;nan;101570.75;5022532;28;20026;-75
2023/08/18 10:51:54;;;;;;;24.48;20.58;;;;;;;23.17;nan;101570.84;5015507;28;20485;-74
2023/08/18 10:54:22;;;;;;;24.63;20.13;;;;;;;23.28;nan;101568.31;5021848;28;20068;-74
2023/08/18 10:56:48;;;;;;;23.98;19.85;;;;;;;23.35;nan;101548.34;5012394;28;20117;-73
2023/08/18 10:59:13;;;;;;;23.65;21.05;;;;;;;23.42;nan;101557.63;5023031;28;20516;-74
2023/08/18 11:01:38;;;;;;;24.15;19.95;;;;;;;23.43;nan;101548.69;5020444;28;20029;-74
2023/08/18 11:04:04;;;;;;;22.63;20.00;;;;;;;23.56;nan;101549.56;5020180;28;20537;-74
2023/08/18 11:06:29;;;;;;;28.08;21.98;;;;;;;23.59;nan;101554.69;5016371;28;20127;-74
2023/08/18 11:08:55;;;;;;;25.52;21.95;;;;;;;23.44;nan;101545.06;5027417;28;20021;-75
2023/08/18 11:11:20;;;;;;;28.20;24.05;;;;;;;23.47;nan;101544.84;5018582;28;20022;-75
2023/08/18 11:13:46;;;;;;;26.05;22.63;;;;;;;23.66;nan;101544.47;5020559;28;20101;-75
2023/08/18 11:16:12;;;;;;;25.45;22.65;;;;;;;23.81;nan;101545.31;5017021;28;20492;-75
2023/08/18 11:18:41;;;;;;;28.75;24.42;;;;;;;23.86;nan;101540.50;5014125;28;20052;-75
2023/08/18 11:21:11;;;;;;;28.27;22.98;;;;;;;23.86;nan;101534.31;5019424;28;20030;-75
2023/08/18 11:23:36;;;;;;;31.15;23.73;;;;;;;24.05;nan;101535.63;5008293;28;20530;-74